Tri Cities Regional Tn Va Airport
KTRI : now visible

Airfield :











YOU CAN JOIN US ON...

 
LOGIN :

Register | Disclaimer

   EN    FR    IT 

 









Legend :    VFR   Marginal VFR   IFR   Intensive IFR   Very Intensive IFR
Visi :
Ceiling :
>= 8 km
>= 3000ft
5 to 8 km
1000 to 3000 ft
1500m to 5 km
500 to 1000 ft
800 to 1500m
200 to 500 ft
< 800m
< 200 ft
Symbols :   Thunderstorms  Fog  Heavy snow  Heavy precipitations  Wind > 20 kt






- Airport Elevation : 1519 ft
- IATA code : TRI


KTRI - Tri Cities Regional Tn Va

CURRENT METAR :
  • 291753Z 00000KT 4SM RA BR SCT007 BKN037 OVC045 07/04 A3025 RMK AO2 SLP241 P0002 60027 T00670044 10067 20028 58007 $

EXPIRED METARs :
  • 291735Z 00000KT 8SM -RA FEW006 BKN036 OVC075 07/04 A3025 RMK AO2 P0001 T00670044 $
  • 291653Z 34003KT 6SM -RA BR BKN049 OVC060 06/04 A3026 RMK AO2 SLP247 P0002 T00610044 $
  • 291553Z 00000KT 4SM -RA BR OVC070 04/03 A3027 RMK AO2 SLP249 P0005 T00440033 $

TAF KTRI
Valid from the 29 at 18:00 until the 30 at 18:00 UTC


291720Z 2918/3018 VRB03KT 4SM RA OVC040
FM292100 VRB04KT 5SM -RA BR OVC020
FM301200 VRB03KT 3SM -RA BR OVC007
KZTL FIR / North America



MET'MAP, your aeronautical weather chart ! - Copyright ORBIFLY December 2007 - Disclaimer

ORBIFLY MET'MAP TEAM :

Programming & Development : Alexandra Zaïnal
Original concept : Baudouin d'Aumeries
Technical & hardware support : Manuel Goepfert
Assistance : Marc-Olivier Méhu




SOURCES & CREDITS :

   NOAA       Earth
Advisory